createdAt,value
2023-04-25T00:00:19.373Z,92.60
2023-04-25T00:02:47.645Z,92.50
2023-04-25T00:05:16.496Z,92.10
2023-04-25T00:07:44.052Z,92.50
2023-04-25T00:10:12.233Z,92.30
2023-04-25T00:12:40.124Z,92.10
2023-04-25T00:15:07.295Z,92.30
2023-04-25T00:17:34.268Z,92.00
2023-04-25T00:20:01.239Z,91.70
2023-04-25T00:22:28.109Z,91.50
2023-04-25T00:24:57.723Z,91.60
2023-04-25T00:27:24.605Z,91.50
2023-04-25T00:29:51.509Z,91.40
2023-04-25T00:32:18.392Z,91.60
2023-04-25T00:34:45.510Z,92.10
2023-04-25T00:37:12.895Z,92.00
2023-04-25T00:39:39.835Z,91.70
2023-04-25T00:42:07.035Z,92.70
2023-04-25T00:44:34.072Z,92.70
2023-04-25T00:47:01.629Z,92.10
2023-04-25T00:49:28.634Z,91.70
2023-04-25T00:51:55.645Z,92.30
2023-04-25T00:54:22.651Z,91.90
2023-04-25T00:56:49.552Z,92.10
2023-04-25T00:59:16.493Z,92.90
2023-04-25T01:01:45.182Z,92.30
2023-04-25T01:04:12.479Z,92.10
2023-04-25T01:06:39.635Z,92.50
2023-04-25T01:09:06.657Z,92.50
2023-04-25T01:11:33.561Z,92.90
2023-04-25T01:14:00.511Z,92.80
2023-04-25T01:16:28.027Z,93.00
2023-04-25T01:18:55.165Z,93.30
2023-04-25T01:21:22.088Z,93.30
2023-04-25T01:23:49.701Z,93.10
2023-04-25T01:26:16.777Z,93.60
2023-04-25T01:28:43.933Z,93.50
2023-04-25T01:31:12.593Z,93.70
2023-04-25T01:33:39.458Z,93.40
2023-04-25T01:36:06.652Z,93.10
2023-04-25T01:38:35.526Z,93.20
2023-04-25T01:41:02.653Z,93.40
2023-04-25T01:43:29.564Z,92.80
2023-04-25T01:45:56.921Z,93.80
2023-04-25T01:48:23.959Z,93.20
2023-04-25T01:50:50.845Z,93.10
2023-04-25T01:53:18.456Z,92.80
2023-04-25T01:55:46.613Z,92.80
2023-04-25T01:58:16.061Z,93.50
2023-04-25T02:01:01.319Z,93.30
2023-04-25T02:03:34.780Z,93.40
2023-04-25T02:06:03.486Z,93.10
2023-04-25T02:08:32.537Z,92.50
2023-04-25T02:10:59.481Z,92.50
2023-04-25T02:13:32.030Z,92.70
2023-04-25T02:16:26.537Z,92.70
2023-04-25T02:18:53.941Z,92.90
2023-04-25T02:21:20.786Z,92.40
2023-04-25T02:23:50.303Z,92.70
2023-04-25T02:26:17.366Z,92.50
2023-04-25T02:28:44.268Z,92.70
2023-04-25T02:31:11.196Z,92.10
2023-04-25T02:33:38.146Z,92.80
2023-04-25T02:36:06.718Z,92.30
2023-04-25T02:38:33.601Z,92.60
2023-04-25T02:41:00.541Z,92.70
2023-04-25T02:43:27.396Z,92.70
2023-04-25T02:45:54.261Z,92.50
2023-04-25T02:48:21.375Z,92.60
2023-04-25T02:50:49.373Z,92.60
2023-04-25T02:53:16.395Z,92.20
2023-04-25T02:55:48.226Z,92.20
2023-04-25T02:58:16.673Z,92.10
2023-04-25T03:00:49.350Z,92.10
2023-04-25T03:03:19.169Z,92.40
2023-04-25T03:05:48.005Z,92.30
2023-04-25T03:08:16.607Z,92.40
2023-04-25T03:10:44.308Z,91.90
2023-04-25T03:13:11.725Z,92.00
2023-04-25T03:15:39.729Z,92.50
2023-04-25T03:18:06.905Z,92.40
2023-04-25T03:20:33.878Z,92.40
2023-04-25T03:23:00.757Z,91.90
2023-04-25T03:25:29.552Z,92.10
2023-04-25T03:27:56.657Z,91.90
2023-04-25T03:30:23.643Z,92.60
2023-04-25T03:32:50.656Z,91.90
2023-04-25T03:35:18.317Z,91.80
2023-04-25T03:37:46.861Z,92.00
2023-04-25T03:40:19.404Z,92.50
2023-04-25T03:43:04.634Z,92.40
2023-04-25T03:45:31.671Z,92.20
2023-04-25T03:47:58.730Z,92.40
2023-04-25T03:50:27.662Z,92.60
2023-04-25T03:52:54.560Z,92.50
2023-04-25T03:55:22.061Z,92.20
2023-04-25T03:57:48.929Z,92.40
2023-04-25T04:00:17.102Z,93.00
2023-04-25T04:02:45.555Z,92.50
2023-04-25T04:05:13.960Z,92.70
2023-04-25T04:07:47.820Z,92.80
2023-04-25T04:10:17.015Z,93.30
2023-04-25T04:12:45.283Z,92.90
2023-04-25T04:15:13.043Z,92.80
2023-04-25T04:17:41.847Z,92.90
2023-04-25T04:20:09.831Z,92.80
2023-04-25T04:22:38.554Z,93.00
2023-04-25T04:25:10.719Z,92.70
2023-04-25T04:27:56.228Z,92.70
2023-04-25T04:30:48.146Z,92.90
2023-04-25T04:33:16.302Z,92.70
2023-04-25T04:35:44.672Z,92.70
2023-04-25T04:38:12.963Z,92.60
2023-04-25T04:40:39.887Z,93.00
2023-04-25T04:43:18.262Z,93.30
2023-04-25T04:46:02.137Z,93.20
2023-04-25T04:48:35.447Z,93.10
2023-04-25T04:51:17.856Z,93.10
2023-04-25T04:54:05.127Z,93.20
2023-04-25T04:56:58.110Z,93.10
2023-04-25T04:59:43.526Z,93.30
2023-04-25T05:02:42.301Z,93.10
2023-04-25T05:05:29.601Z,92.90
2023-04-25T05:08:11.530Z,92.60
2023-04-25T05:10:51.664Z,92.80
2023-04-25T05:13:47.878Z,92.50
2023-04-25T05:16:46.900Z,92.50
2023-04-25T05:19:33.733Z,92.50
2023-04-25T05:22:19.305Z,93.00
2023-04-25T05:25:12.240Z,93.00
2023-04-25T05:28:02.000Z,93.10
2023-04-25T05:30:51.596Z,92.10
2023-04-25T05:33:21.930Z,92.60
2023-04-25T05:35:48.973Z,91.90
2023-04-25T05:38:16.261Z,92.50
2023-04-25T05:41:01.897Z,92.70
2023-04-25T05:43:51.043Z,91.90
2023-04-25T05:46:36.771Z,91.70
2023-04-25T05:49:24.679Z,92.10
2023-04-25T05:51:54.168Z,91.60
2023-04-25T05:54:34.340Z,91.20
2023-04-25T05:57:01.429Z,91.40
2023-04-25T05:59:28.923Z,91.00
2023-04-25T06:01:56.248Z,91.30
2023-04-25T06:04:24.237Z,90.80
2023-04-25T06:06:51.399Z,91.70
2023-04-25T06:09:18.293Z,90.40
2023-04-25T06:11:45.171Z,91.10
2023-04-25T06:14:12.101Z,90.00
2023-04-25T06:16:45.789Z,88.10
2023-04-25T06:19:12.685Z,90.70
2023-04-25T06:21:39.694Z,89.80
2023-04-25T06:24:06.630Z,90.50
2023-04-25T06:26:33.748Z,90.00
2023-04-25T06:29:00.650Z,88.50
2023-04-25T06:31:27.748Z,88.10
2023-04-25T06:33:56.076Z,84.90
2023-04-25T06:36:27.016Z,87.60
2023-04-25T06:38:58.316Z,85.60
2023-04-25T06:41:25.213Z,86.90
2023-04-25T06:43:53.422Z,88.30
2023-04-25T06:46:28.160Z,85.30
2023-04-25T06:48:58.300Z,85.50
2023-04-25T06:51:25.805Z,88.20
2023-04-25T06:53:54.866Z,85.80
2023-04-25T06:56:37.238Z,88.20
2023-04-25T06:59:09.322Z,83.20
2023-04-25T07:01:38.754Z,79.20
2023-04-25T07:04:11.405Z,84.60
2023-04-25T07:06:44.216Z,83.10
2023-04-25T07:09:12.490Z,81.90
2023-04-25T07:11:40.006Z,77.30
2023-04-25T07:14:07.075Z,62.90
2023-04-25T07:16:34.591Z,54.00
2023-04-25T07:19:02.401Z,45.10
2023-04-25T07:21:29.900Z,41.80
2023-04-25T07:23:57.085Z,28.50
2023-04-25T07:26:29.673Z,17.00
2023-04-25T07:29:14.942Z,18.70
2023-04-25T07:31:41.890Z,9.80
2023-04-25T07:34:08.859Z,8.50
2023-04-25T07:36:38.265Z,8.70
2023-04-25T07:39:06.506Z,6.50
2023-04-25T07:41:33.601Z,1.00
2023-04-25T07:44:01.388Z,3.70
2023-04-25T07:46:28.370Z,1.30
2023-04-25T07:48:55.424Z,1.00
2023-04-25T07:51:23.368Z,1.00
2023-04-25T07:53:52.556Z,1.00
2023-04-25T07:56:21.274Z,1.00
2023-04-25T07:58:49.833Z,1.10
2023-04-25T08:01:20.108Z,2.30
2023-04-25T08:03:56.970Z,2.10
2023-04-25T08:06:33.552Z,1.00
2023-04-25T08:09:10.558Z,1.00
2023-04-25T08:11:40.166Z,1.00
2023-04-25T08:14:09.109Z,1.00
2023-04-25T08:16:37.115Z,1.00
2023-04-25T08:19:04.279Z,1.00
2023-04-25T08:21:32.552Z,1.00
2023-04-25T08:24:02.678Z,1.00
2023-04-25T08:26:34.574Z,1.00
2023-04-25T08:29:02.786Z,1.00
2023-04-25T08:31:30.036Z,1.00
2023-04-25T08:34:00.185Z,1.00
2023-04-25T08:36:47.329Z,1.00
2023-04-25T08:39:25.513Z,1.00
2023-04-25T08:42:28.199Z,1.00
2023-04-25T08:44:56.424Z,1.00
2023-04-25T08:47:27.371Z,1.00
2023-04-25T08:49:57.366Z,1.00
2023-04-25T08:52:24.862Z,1.00
2023-04-25T08:54:53.346Z,1.00
2023-04-25T08:57:21.166Z,1.00
2023-04-25T08:59:49.518Z,1.00
2023-04-25T09:02:19.187Z,1.00
2023-04-25T09:04:49.197Z,1.00
2023-04-25T09:07:19.762Z,1.00
2023-04-25T09:09:46.847Z,1.00
2023-04-25T09:12:17.474Z,1.00
2023-04-25T09:14:45.016Z,1.00
2023-04-25T09:17:23.300Z,1.00
2023-04-25T09:19:53.877Z,1.00
2023-04-25T09:22:27.721Z,1.00
2023-04-25T09:24:54.778Z,1.00
2023-04-25T09:27:26.409Z,1.00
2023-04-25T09:30:02.100Z,1.00
2023-04-25T09:32:39.875Z,1.00
2023-04-25T09:35:07.062Z,1.00
2023-04-25T09:37:34.363Z,1.00
2023-04-25T09:40:33.472Z,1.00
2023-04-25T09:43:12.389Z,1.00
2023-04-25T09:45:46.866Z,1.00
2023-04-25T09:48:19.076Z,1.00
2023-04-25T09:51:04.825Z,1.00
2023-04-25T09:53:33.295Z,1.00
2023-04-25T09:56:22.690Z,1.00
2023-04-25T09:58:50.102Z,1.00
2023-04-25T10:01:17.272Z,1.00
2023-04-25T10:03:57.856Z,1.00
2023-04-25T10:06:41.229Z,1.00
2023-04-25T10:09:09.089Z,1.00
2023-04-25T10:11:37.051Z,1.00
2023-04-25T10:14:03.905Z,1.00
2023-04-25T10:16:31.528Z,1.00
2023-04-25T10:18:58.626Z,1.00
2023-04-25T10:21:25.561Z,1.00
2023-04-25T10:23:52.804Z,1.00
2023-04-25T10:26:20.020Z,1.00
2023-04-25T10:29:00.006Z,1.00
2023-04-25T10:31:27.085Z,1.00
2023-04-25T10:33:54.246Z,1.00
2023-04-25T10:36:24.472Z,1.00
2023-04-25T10:38:52.003Z,1.00
2023-04-25T10:41:20.056Z,1.00
2023-04-25T10:43:47.372Z,1.00
2023-04-25T10:46:14.405Z,1.00
2023-04-25T10:48:44.940Z,1.00
2023-04-25T10:51:12.223Z,1.00
2023-04-25T10:53:39.073Z,1.00
2023-04-25T10:56:12.592Z,1.00
2023-04-25T10:58:45.033Z,1.00
2023-04-25T11:01:13.062Z,1.00
2023-04-25T11:03:44.443Z,1.00
2023-04-25T11:06:24.784Z,1.00
2023-04-25T11:08:52.345Z,1.00
2023-04-25T11:11:19.955Z,1.00
2023-04-25T11:13:50.736Z,1.00
2023-04-25T11:16:26.899Z,1.00
2023-04-25T11:18:54.914Z,1.00
2023-04-25T11:21:21.924Z,1.00
2023-04-25T11:23:48.980Z,1.00
2023-04-25T11:26:16.494Z,1.00
2023-04-25T11:28:46.034Z,1.00
2023-04-25T11:31:12.955Z,1.00
2023-04-25T11:33:41.937Z,1.00
2023-04-25T11:36:08.933Z,1.00
2023-04-25T11:38:35.849Z,1.00
2023-04-25T11:41:02.797Z,1.00
2023-04-25T11:43:29.668Z,1.00
2023-04-25T11:45:56.779Z,1.00
2023-04-25T11:48:26.100Z,1.00
2023-04-25T11:50:54.724Z,1.00
2023-04-25T11:53:21.730Z,1.00
2023-04-25T11:55:48.968Z,1.00
2023-04-25T11:58:16.475Z,1.00
2023-04-25T12:00:50.354Z,1.00
2023-04-25T12:03:18.695Z,1.00
2023-04-25T12:05:46.148Z,1.00
2023-04-25T12:08:16.527Z,1.00
2023-04-25T12:10:44.260Z,1.00
2023-04-25T12:13:24.328Z,1.00
2023-04-25T12:15:51.476Z,1.00
2023-04-25T12:18:22.378Z,1.00
2023-04-25T12:22:47.863Z,1.00
2023-04-25T12:25:34.607Z,1.00
2023-04-25T12:28:32.979Z,1.00
2023-04-25T12:31:06.509Z,1.00
2023-04-25T12:33:37.350Z,1.00
2023-04-25T12:36:09.588Z,1.00
2023-04-25T12:38:40.796Z,1.00
2023-04-25T12:41:07.883Z,1.00
2023-04-25T12:43:34.876Z,1.00
2023-04-25T12:46:01.827Z,1.00
2023-04-25T12:48:28.865Z,1.00
2023-04-25T12:50:55.883Z,1.00
2023-04-25T12:53:23.853Z,1.00
2023-04-25T12:55:51.073Z,1.00
2023-04-25T12:58:18.975Z,1.00
2023-04-25T13:00:46.213Z,1.00
2023-04-25T13:03:13.818Z,1.00
2023-04-25T13:05:41.190Z,1.00
2023-04-25T13:08:08.200Z,1.00
2023-04-25T13:10:35.208Z,1.00
2023-04-25T13:13:02.554Z,1.00
2023-04-25T13:15:29.515Z,1.00
2023-04-25T13:17:57.305Z,1.00
2023-04-25T13:20:24.486Z,1.00
2023-04-25T13:22:51.490Z,1.00
2023-04-25T13:25:18.524Z,1.00
2023-04-25T13:27:45.965Z,1.00
2023-04-25T13:30:13.280Z,1.00
2023-04-25T13:32:40.287Z,1.00
2023-04-25T13:35:11.141Z,1.00
2023-04-25T13:37:38.834Z,1.00
2023-04-25T13:40:11.246Z,1.00
2023-04-25T13:42:38.678Z,1.00
2023-04-25T13:45:06.052Z,1.00
2023-04-25T13:47:33.252Z,1.00
2023-04-25T13:50:00.566Z,1.00
2023-04-25T13:52:28.435Z,1.00
2023-04-25T13:54:55.474Z,1.00
2023-04-25T13:57:22.493Z,1.00
2023-04-25T13:59:49.445Z,1.00
2023-04-25T14:02:16.702Z,1.00
2023-04-25T14:04:43.919Z,1.00
2023-04-25T14:07:12.151Z,1.00
2023-04-25T14:09:39.069Z,1.00
2023-04-25T14:12:07.143Z,1.00
2023-04-25T14:14:34.203Z,1.00
2023-04-25T14:17:01.208Z,1.00
2023-04-25T14:19:28.875Z,1.00
2023-04-25T14:21:56.102Z,1.00
2023-04-25T14:24:23.112Z,1.00
2023-04-25T14:26:50.103Z,1.00
2023-04-25T14:29:17.047Z,1.00
2023-04-25T14:31:44.054Z,1.00
2023-04-25T14:34:11.725Z,1.00
2023-04-25T14:36:38.657Z,1.00
2023-04-25T14:39:08.431Z,1.00
2023-04-25T14:41:35.472Z,1.00
2023-04-25T14:44:02.557Z,1.00
2023-04-25T14:46:29.828Z,1.00
2023-04-25T14:48:57.395Z,1.00
2023-04-25T14:51:24.429Z,1.00
2023-04-25T14:53:52.338Z,1.00
2023-04-25T14:56:20.000Z,1.00
2023-04-25T14:58:47.365Z,1.00
2023-04-25T15:01:15.035Z,1.00
2023-04-25T15:03:42.477Z,1.00
2023-04-25T15:06:09.811Z,1.00
2023-04-25T15:08:37.263Z,1.00
2023-04-25T15:11:04.394Z,1.00
2023-04-25T15:13:31.694Z,1.00
2023-04-25T15:15:58.712Z,1.00
2023-04-25T15:18:25.976Z,1.00
2023-04-25T15:20:53.339Z,1.00
2023-04-25T15:23:21.032Z,1.00
2023-04-25T15:25:48.441Z,1.00
2023-04-25T15:28:17.041Z,1.00
2023-04-25T15:30:44.755Z,1.00
2023-04-25T15:33:11.845Z,1.00
2023-04-25T15:35:38.957Z,1.00
2023-04-25T15:38:06.733Z,1.00
2023-04-25T15:40:33.690Z,1.00
2023-04-25T15:43:00.755Z,1.00
2023-04-25T15:45:28.139Z,1.00
2023-04-25T15:47:56.150Z,1.00
2023-04-25T15:50:23.305Z,1.00
2023-04-25T15:52:50.664Z,1.00
2023-04-25T15:55:18.755Z,1.00
2023-04-25T15:57:45.728Z,1.00
2023-04-25T16:00:13.665Z,1.00
2023-04-25T16:02:41.017Z,1.00
2023-04-25T16:05:09.289Z,1.00
2023-04-25T16:07:36.483Z,1.00
2023-04-25T16:10:03.926Z,1.00
2023-04-25T16:12:31.307Z,1.00
2023-04-25T16:14:58.478Z,1.00
2023-04-25T16:17:26.157Z,1.00
2023-04-25T16:19:53.114Z,1.00
2023-04-25T16:22:20.124Z,1.00
2023-04-25T16:24:47.163Z,1.00
2023-04-25T16:27:14.187Z,1.00
2023-04-25T16:29:41.431Z,1.00
2023-04-25T16:32:08.412Z,1.00
2023-04-25T16:34:35.404Z,1.00
2023-04-25T16:37:02.494Z,1.00
2023-04-25T16:39:29.598Z,1.00
2023-04-25T16:41:56.538Z,1.00
2023-04-25T16:44:23.505Z,1.00
2023-04-25T16:46:50.891Z,1.00
2023-04-25T16:49:17.945Z,1.00
2023-04-25T16:51:46.559Z,1.00
2023-04-25T16:54:13.652Z,1.00
2023-04-25T16:56:41.853Z,1.00
2023-04-25T16:59:08.884Z,1.00
2023-04-25T17:01:36.489Z,1.00
2023-04-25T17:04:03.544Z,1.00
2023-04-25T17:06:30.767Z,1.00
2023-04-25T17:08:57.781Z,1.00
2023-04-25T17:11:24.745Z,1.00
2023-04-25T17:13:51.797Z,1.00
2023-04-25T17:16:23.066Z,1.00
2023-04-25T17:18:53.629Z,1.00
2023-04-25T17:21:20.833Z,1.00
2023-04-25T17:23:47.832Z,1.00
2023-04-25T17:26:15.211Z,1.00
2023-04-25T17:28:45.160Z,1.00
2023-04-25T17:31:12.426Z,1.00
2023-04-25T17:33:39.495Z,1.00
2023-04-25T17:36:07.486Z,1.00
2023-04-25T17:38:35.848Z,1.00
2023-04-25T17:41:03.400Z,1.00
2023-04-25T17:43:31.629Z,1.00
2023-04-25T17:45:58.850Z,1.00
2023-04-25T17:48:26.922Z,1.00
2023-04-25T17:50:53.892Z,1.00
2023-04-25T17:53:20.882Z,1.00
2023-04-25T17:55:50.581Z,1.00
2023-04-25T17:58:17.785Z,1.00
2023-04-25T18:00:44.758Z,1.00
2023-04-25T18:03:12.202Z,1.00
2023-04-25T18:05:39.222Z,1.00
2023-04-25T18:08:06.994Z,1.00
2023-04-25T18:10:34.493Z,1.00
2023-04-25T18:13:01.418Z,1.00
2023-04-25T18:15:28.979Z,1.00
2023-04-25T18:17:58.187Z,1.00
2023-04-25T18:20:25.918Z,1.00
2023-04-25T18:22:52.975Z,1.00
2023-04-25T18:25:19.912Z,1.00
2023-04-25T18:27:46.902Z,1.00
2023-04-25T18:30:14.128Z,1.00
2023-04-25T18:32:41.128Z,1.00
2023-04-25T18:35:10.320Z,1.00
2023-04-25T18:37:37.976Z,1.00
2023-04-25T18:40:08.831Z,1.00
2023-04-25T18:42:38.014Z,1.00
2023-04-25T18:45:05.695Z,1.00
2023-04-25T18:47:32.796Z,1.00
2023-04-25T18:49:59.832Z,1.00
2023-04-25T18:52:26.958Z,1.00
2023-04-25T18:54:53.948Z,1.00
2023-04-25T18:57:21.266Z,1.00
2023-04-25T18:59:48.309Z,1.10
2023-04-25T19:02:16.745Z,1.00
2023-04-25T19:04:44.064Z,2.30
2023-04-25T19:07:11.378Z,1.50
2023-04-25T19:09:38.381Z,2.60
2023-04-25T19:12:05.579Z,3.40
2023-04-25T19:14:33.038Z,4.00
2023-04-25T19:17:00.452Z,5.70
2023-04-25T19:19:27.799Z,5.30
2023-04-25T19:21:54.816Z,6.10
2023-04-25T19:24:22.326Z,4.80
2023-04-25T19:26:49.304Z,6.30
2023-04-25T19:32:03.169Z,10.10
2023-04-25T19:34:30.203Z,7.00
2023-04-25T19:36:57.183Z,12.20
2023-04-25T19:39:24.152Z,10.00
2023-04-25T19:41:51.140Z,11.20
2023-04-25T19:44:18.331Z,13.20
2023-04-25T19:46:46.854Z,11.60
2023-04-25T19:49:13.978Z,12.80
2023-04-25T19:51:41.131Z,12.80
2023-04-25T19:54:08.106Z,13.00
2023-04-25T19:56:35.131Z,13.80
2023-04-25T19:59:02.258Z,14.90
2023-04-25T20:01:29.574Z,15.20
2023-04-25T20:03:56.819Z,12.00
2023-04-25T20:06:24.063Z,18.60
2023-04-25T20:08:53.434Z,21.00
2023-04-25T20:11:21.647Z,19.40
2023-04-25T20:13:48.682Z,20.10
2023-04-25T20:16:20.434Z,20.70
2023-04-25T20:18:48.709Z,22.10
2023-04-25T20:21:17.088Z,21.80
2023-04-25T20:23:44.261Z,23.40
2023-04-25T20:26:12.913Z,24.30
2023-04-25T20:28:39.954Z,25.40
2023-04-25T20:31:06.941Z,25.40
2023-04-25T20:33:35.354Z,26.30
2023-04-25T20:36:02.295Z,26.40
2023-04-25T20:38:29.288Z,25.90
2023-04-25T20:40:56.581Z,26.00
2023-04-25T20:43:23.715Z,27.30
2023-04-25T20:45:51.002Z,28.30
2023-04-25T20:48:18.088Z,29.50
2023-04-25T20:50:45.086Z,28.40
2023-04-25T20:53:12.296Z,28.30
2023-04-25T20:55:41.686Z,30.00
2023-04-25T20:58:08.786Z,30.10
2023-04-25T21:00:35.796Z,32.70
2023-04-25T21:03:05.250Z,26.00
2023-04-25T21:05:32.437Z,26.00
2023-04-25T21:07:59.425Z,32.40
2023-04-25T21:10:26.370Z,28.60
2023-04-25T21:12:54.230Z,33.70
2023-04-25T21:15:21.611Z,34.30
2023-04-25T21:17:49.583Z,30.20
2023-04-25T21:20:18.225Z,35.60
2023-04-25T21:22:54.029Z,37.40
2023-04-25T21:25:25.568Z,36.50
2023-04-25T21:27:53.163Z,35.10
2023-04-25T21:30:23.369Z,34.20
2023-04-25T21:32:53.801Z,40.50
2023-04-25T21:35:21.108Z,41.60
2023-04-25T21:37:48.227Z,50.50
2023-04-25T21:40:15.391Z,45.90
2023-04-25T21:42:44.753Z,43.80
2023-04-25T21:45:12.221Z,40.30
2023-04-25T21:47:39.419Z,38.80
2023-04-25T21:50:07.619Z,40.70
2023-04-25T21:52:35.883Z,49.80
2023-04-25T21:55:02.842Z,51.40
2023-04-25T21:57:29.794Z,43.90
2023-04-25T21:59:56.919Z,44.50
2023-04-25T22:02:24.809Z,47.90
2023-04-25T22:04:52.648Z,50.70
2023-04-25T22:07:19.976Z,52.60
2023-04-25T22:09:54.422Z,52.30
2023-04-25T22:12:23.542Z,51.70
2023-04-25T22:14:50.986Z,53.90
2023-04-25T22:17:19.041Z,54.90
2023-04-25T22:19:46.737Z,58.50
2023-04-25T22:22:13.792Z,57.80
2023-04-25T22:24:41.094Z,58.90
2023-04-25T22:27:08.122Z,59.90
2023-04-25T22:29:35.340Z,60.70
2023-04-25T22:32:02.646Z,60.70
2023-04-25T22:34:29.616Z,57.90
2023-04-25T22:36:56.613Z,59.70
2023-04-25T22:39:23.705Z,60.70
2023-04-25T22:41:50.768Z,56.70
2023-04-25T22:44:18.032Z,57.40
2023-04-25T22:46:45.049Z,62.30
2023-04-25T22:49:12.203Z,62.70
2023-04-25T22:51:39.203Z,62.50
2023-04-25T22:54:06.309Z,64.40
2023-04-25T22:56:33.309Z,63.70
2023-04-25T22:59:00.320Z,61.70
2023-04-25T23:01:29.146Z,60.50
2023-04-25T23:03:56.890Z,61.40
2023-04-25T23:06:24.918Z,66.20
2023-04-25T23:08:52.082Z,65.90
2023-04-25T23:11:20.539Z,66.40
2023-04-25T23:13:47.615Z,67.70
2023-04-25T23:16:14.561Z,66.20
2023-04-25T23:18:41.570Z,62.90
2023-04-25T23:21:09.284Z,65.50
2023-04-25T23:23:36.649Z,67.00
2023-04-25T23:26:13.032Z,68.40
2023-04-25T23:28:48.912Z,68.20
2023-04-25T23:31:16.071Z,69.70
2023-04-25T23:33:43.064Z,69.70
2023-04-25T23:36:21.490Z,70.60
2023-04-25T23:38:48.814Z,69.50
2023-04-25T23:41:15.894Z,69.60
2023-04-25T23:43:42.887Z,70.40
2023-04-25T23:46:09.924Z,71.50
2023-04-25T23:48:36.937Z,71.00
2023-04-25T23:51:03.971Z,72.00
2023-04-25T23:53:31.165Z,73.00
2023-04-25T23:55:58.251Z,73.50
2023-04-25T23:58:25.250Z,73.70
